Time;durP1;ratioP1;P1;durP2;ratioP2;P2;SDS_P1;SDS_P2;PMS_P1;PMS_P2;Temp;Humidity;BMP_temperature;BMP_pressure;BME280_temperature;BME280_humidity;BME280_pressure;Samples;Min_cycle;Max_cycle;Signal;HPM_P1;HPM_P2
2022/01/02 00:02:02;;;;;;;9.07;5.35;;;;;;;;;;5059522;28;20044;-75
2022/01/02 00:04:30;;;;;;;6.90;4.45;;;;;;;;;;5072673;28;20051;-74
2022/01/02 00:06:59;;;;;;;9.10;5.45;;;;;;;;;;5073628;28;20055;-75
2022/01/02 00:09:31;;;;;;;7.18;5.03;;;;;;;;;;5071097;28;20059;-75
2022/01/02 00:12:05;;;;;;;9.27;5.63;;;;;;;;;;5070837;28;20056;-74
2022/01/02 00:14:33;;;;;;;10.75;5.47;;;;;;;;;;5061145;28;20075;-76
2022/01/02 00:17:01;;;;;;;11.43;5.50;;;;;;;;;;5074205;28;20053;-74
2022/01/02 00:19:30;;;;;;;11.77;5.57;;;;;;;;;;5072704;28;20520;-73
2022/01/02 00:22:00;;;;;;;9.88;4.93;;;;;;;;;;5072185;28;20055;-74
2022/01/02 00:24:27;;;;;;;8.80;5.50;;;;;;;;;;5073783;28;20060;-68
2022/01/02 00:26:54;;;;;;;12.30;5.78;;;;;;;;;;5072154;28;20056;-74
2022/01/02 00:29:21;;;;;;;10.50;5.78;;;;;;;;;;5071633;28;20179;-74
2022/01/02 00:31:51;;;;;;;11.63;5.07;;;;;;;;;;5071637;28;20469;-74
2022/01/02 00:34:18;;;;;;;9.13;5.78;;;;;;;;;;5073913;28;20053;-76
2022/01/02 00:36:44;;;;;;;9.32;5.18;;;;;;;;;;5059237;28;20053;-75
2022/01/02 00:39:10;;;;;;;9.95;5.05;;;;;;;;;;5077094;28;20049;-74
2022/01/02 00:41:44;;;;;;;9.68;5.22;;;;;;;;;;5072613;28;20497;-74
2022/01/02 00:44:18;;;;;;;7.90;4.93;;;;;;;;;;5073371;28;20151;-75
2022/01/02 00:46:51;;;;;;;10.50;5.97;;;;;;;;;;5062957;28;20135;-75
2022/01/02 00:49:24;;;;;;;11.55;5.95;;;;;;;;;;5071186;28;20488;-72
2022/01/02 00:52:14;;;;;;;10.77;5.93;;;;;;;;;;5070697;28;20061;-72
2022/01/02 00:54:43;;;;;;;8.07;4.95;;;;;;;;;;5051630;28;20056;-73
2022/01/02 00:57:13;;;;;;;10.20;6.10;;;;;;;;;;5073708;28;20083;-73
2022/01/02 00:59:47;;;;;;;10.70;5.93;;;;;;;;;;5071291;28;20139;-74
2022/01/02 01:02:15;;;;;;;11.13;5.93;;;;;;;;;;5072549;28;20063;-75
2022/01/02 01:04:42;;;;;;;16.23;6.60;;;;;;;;;;5071671;28;20049;-76
2022/01/02 01:07:09;;;;;;;15.30;5.93;;;;;;;;;;5072981;28;20057;-74
2022/01/02 01:09:35;;;;;;;15.80;6.30;;;;;;;;;;5072991;28;20056;-74
2022/01/02 01:12:03;;;;;;;8.90;5.28;;;;;;;;;;5072660;28;20143;-76
2022/01/02 01:14:30;;;;;;;8.85;5.78;;;;;;;;;;5072383;28;20496;-75
2022/01/02 01:16:57;;;;;;;9.93;5.60;;;;;;;;;;5073987;28;20053;-72
2022/01/02 01:19:23;;;;;;;10.32;5.68;;;;;;;;;;5072953;28;20045;-74
2022/01/02 01:21:50;;;;;;;11.82;5.63;;;;;;;;;;5072018;28;20603;-73
2022/01/02 01:24:17;;;;;;;13.27;5.97;;;;;;;;;;5072638;28;20053;-74
2022/01/02 01:26:46;;;;;;;9.77;5.30;;;;;;;;;;5072639;28;20167;-74
2022/01/02 01:29:12;;;;;;;12.05;5.57;;;;;;;;;;5070296;28;20055;-75
2022/01/02 01:31:39;;;;;;;13.13;5.82;;;;;;;;;;5072201;28;20053;-74
2022/01/02 01:34:05;;;;;;;13.63;6.28;;;;;;;;;;5071765;28;20489;-74
2022/01/02 01:36:31;;;;;;;12.95;5.97;;;;;;;;;;5069973;28;20532;-74
2022/01/02 01:38:58;;;;;;;14.32;6.45;;;;;;;;;;5071474;28;20059;-74
2022/01/02 01:41:24;;;;;;;10.30;5.68;;;;;;;;;;5067617;28;20151;-75
2022/01/02 01:44:06;;;;;;;15.20;6.50;;;;;;;;;;5069111;28;20171;-75
2022/01/02 01:46:33;;;;;;;10.55;5.28;;;;;;;;;;5072647;28;20563;-75
2022/01/02 01:48:59;;;;;;;16.02;6.10;;;;;;;;;;5070569;28;20057;-73
2022/01/02 01:51:26;;;;;;;15.85;5.68;;;;;;;;;;5070670;28;20059;-74
2022/01/02 01:53:52;;;;;;;11.50;5.20;;;;;;;;;;5072628;28;20061;-73
2022/01/02 01:56:18;;;;;;;11.75;5.65;;;;;;;;;;5072344;28;20053;-73
2022/01/02 01:58:44;;;;;;;15.82;5.60;;;;;;;;;;5071100;28;20136;-73
2022/01/02 02:01:11;;;;;;;10.75;5.40;;;;;;;;;;5072354;28;20055;-73
2022/01/02 02:03:37;;;;;;;10.57;5.28;;;;;;;;;;5072187;28;20057;-73
2022/01/02 02:06:04;;;;;;;9.50;5.00;;;;;;;;;;5076284;28;20056;-75
2022/01/02 02:08:30;;;;;;;10.80;5.28;;;;;;;;;;5070876;28;20141;-74
2022/01/02 02:10:58;;;;;;;12.55;5.13;;;;;;;;;;5072440;28;20823;-73
2022/01/02 02:13:24;;;;;;;8.50;4.50;;;;;;;;;;5068923;28;20443;-73
2022/01/02 02:15:51;;;;;;;14.13;5.35;;;;;;;;;;5070607;28;20052;-73
2022/01/02 02:18:18;;;;;;;10.15;5.53;;;;;;;;;;5071373;28;20053;-75
2022/01/02 02:20:44;;;;;;;17.13;4.72;;;;;;;;;;5071976;28;20602;-73
2022/01/02 02:23:14;;;;;;;9.65;5.43;;;;;;;;;;5072269;28;20061;-73
2022/01/02 02:25:42;;;;;;;9.38;5.07;;;;;;;;;;5062749;28;20050;-74
2022/01/02 02:28:15;;;;;;;16.20;5.53;;;;;;;;;;5068417;28;20489;-73
2022/01/02 02:30:43;;;;;;;11.93;4.97;;;;;;;;;;5071046;28;20140;-73
2022/01/02 02:33:10;;;;;;;13.38;4.85;;;;;;;;;;5070116;28;20053;-73
2022/01/02 02:35:38;;;;;;;17.02;4.70;;;;;;;;;;5078289;28;20048;-73
2022/01/02 02:38:05;;;;;;;15.18;4.88;;;;;;;;;;5072046;28;20088;-73
2022/01/02 02:40:32;;;;;;;12.65;4.93;;;;;;;;;;5071711;28;20060;-73
2022/01/02 02:43:03;;;;;;;14.90;4.55;;;;;;;;;;5071755;28;20059;-73
2022/01/02 02:51:07;;;;;;;19.30;4.75;;;;;;;;;;5058422;28;20083;-74
2022/01/02 02:53:35;;;;;;;15.52;4.13;;;;;;;;;;5072407;28;20055;-74
2022/01/02 02:56:02;;;;;;;13.93;4.47;;;;;;;;;;5072113;28;20634;-73
2022/01/02 03:00:58;;;;;;;11.60;4.00;;;;;;;;;;5070480;28;20136;-74
2022/01/02 03:03:24;;;;;;;13.32;4.10;;;;;;;;;;5072028;28;20056;-72
2022/01/02 03:05:51;;;;;;;13.02;5.30;;;;;;;;;;5071321;28;20045;-73
2022/01/02 03:08:17;;;;;;;11.95;4.13;;;;;;;;;;5071378;28;20055;-72
2022/01/02 03:10:44;;;;;;;14.57;4.63;;;;;;;;;;5071036;28;20135;-72
2022/01/02 03:13:10;;;;;;;14.90;4.05;;;;;;;;;;5072164;28;20064;-73
2022/01/02 03:15:37;;;;;;;13.52;4.18;;;;;;;;;;5070966;28;20048;-73
2022/01/02 03:18:03;;;;;;;12.15;3.83;;;;;;;;;;5071459;28;20059;-72
2022/01/02 03:20:30;;;;;;;13.55;3.35;;;;;;;;;;5075180;28;20049;-73
2022/01/02 03:22:56;;;;;;;10.65;3.83;;;;;;;;;;5070948;28;20059;-73
2022/01/02 03:25:22;;;;;;;9.82;4.00;;;;;;;;;;5074222;28;20523;-75
2022/01/02 03:27:48;;;;;;;10.95;3.55;;;;;;;;;;5073368;28;20059;-73
2022/01/02 03:30:15;;;;;;;10.27;3.88;;;;;;;;;;5074167;28;20144;-74
2022/01/02 03:32:41;;;;;;;9.88;3.55;;;;;;;;;;5074462;28;20053;-73
2022/01/02 03:35:07;;;;;;;15.35;4.68;;;;;;;;;;5074359;28;20060;-73
2022/01/02 03:37:34;;;;;;;7.97;3.80;;;;;;;;;;5071965;28;20503;-72
2022/01/02 03:40:01;;;;;;;16.45;4.30;;;;;;;;;;5077208;28;20054;-74
2022/01/02 03:42:28;;;;;;;11.30;4.03;;;;;;;;;;5085238;28;20497;-72
2022/01/02 03:44:56;;;;;;;13.70;4.03;;;;;;;;;;5074739;28;20140;-74
2022/01/02 03:47:23;;;;;;;13.60;4.05;;;;;;;;;;5074499;28;20500;-73
2022/01/02 03:49:49;;;;;;;10.50;3.53;;;;;;;;;;5075346;28;20059;-72
2022/01/02 03:52:15;;;;;;;15.18;4.40;;;;;;;;;;5072961;28;20056;-72
2022/01/02 03:54:42;;;;;;;16.70;4.50;;;;;;;;;;5071473;28;20140;-72
2022/01/02 03:57:08;;;;;;;12.98;3.90;;;;;;;;;;5073885;28;20592;-73
2022/01/02 03:59:35;;;;;;;14.70;4.40;;;;;;;;;;5074230;28;20056;-74
2022/01/02 04:02:01;;;;;;;13.82;3.58;;;;;;;;;;5073783;28;20174;-74
2022/01/02 04:04:28;;;;;;;11.98;4.38;;;;;;;;;;5073234;28;20057;-72
2022/01/02 04:06:54;;;;;;;7.18;3.72;;;;;;;;;;5074408;28;20060;-73
2022/01/02 04:09:21;;;;;;;14.27;4.38;;;;;;;;;;5074905;28;20049;-73
2022/01/02 04:11:47;;;;;;;13.32;4.22;;;;;;;;;;5075826;28;20049;-74
2022/01/02 04:14:13;;;;;;;14.10;4.20;;;;;;;;;;5073817;28;20053;-73
2022/01/02 04:16:40;;;;;;;15.23;4.32;;;;;;;;;;5073785;28;20049;-72
2022/01/02 04:19:06;;;;;;;12.80;4.18;;;;;;;;;;5074096;28;20049;-73
2022/01/02 04:21:32;;;;;;;8.52;3.60;;;;;;;;;;5073906;28;20055;-72
2022/01/02 04:23:59;;;;;;;14.80;4.43;;;;;;;;;;5077564;28;20045;-73
2022/01/02 04:26:25;;;;;;;14.63;3.47;;;;;;;;;;5081254;28;20064;-72
2022/01/02 04:28:51;;;;;;;8.60;3.25;;;;;;;;;;5073429;28;20532;-71
2022/01/02 04:31:17;;;;;;;13.23;3.53;;;;;;;;;;5071854;28;20045;-72
2022/01/02 04:33:44;;;;;;;13.15;2.97;;;;;;;;;;5071699;28;20049;-73
2022/01/02 04:36:10;;;;;;;7.07;3.08;;;;;;;;;;5070325;28;20049;-73
2022/01/02 04:38:37;;;;;;;8.75;3.30;;;;;;;;;;5073255;28;20147;-73
2022/01/02 04:41:04;;;;;;;9.45;2.92;;;;;;;;;;5073856;28;20059;-74
2022/01/02 04:43:30;;;;;;;11.85;3.58;;;;;;;;;;5073555;28;20049;-73
2022/01/02 04:45:56;;;;;;;9.55;3.67;;;;;;;;;;5072437;28;20060;-73
2022/01/02 04:48:23;;;;;;;13.38;4.07;;;;;;;;;;5073270;28;20823;-73
2022/01/02 04:50:49;;;;;;;10.65;3.20;;;;;;;;;;5076721;28;20055;-71
2022/01/02 04:53:16;;;;;;;13.32;3.90;;;;;;;;;;5073785;28;20048;-73
2022/01/02 04:55:42;;;;;;;9.65;3.58;;;;;;;;;;5074133;28;20143;-72
2022/01/02 04:58:09;;;;;;;10.82;3.97;;;;;;;;;;5072552;28;20052;-73
2022/01/02 05:00:35;;;;;;;9.90;3.92;;;;;;;;;;5072923;28;20052;-73
2022/01/02 05:03:01;;;;;;;10.98;4.72;;;;;;;;;;5072732;28;20090;-71
2022/01/02 05:05:28;;;;;;;9.68;3.60;;;;;;;;;;5069475;28;20088;-73
2022/01/02 05:07:54;;;;;;;11.20;3.47;;;;;;;;;;5072872;28;20059;-73
2022/01/02 05:10:20;;;;;;;11.85;5.20;;;;;;;;;;5073005;28;20049;-72
2022/01/02 05:12:47;;;;;;;9.70;3.63;;;;;;;;;;5072770;28;20055;-72
2022/01/02 05:15:13;;;;;;;12.55;4.20;;;;;;;;;;5069044;28;20140;-73
2022/01/02 05:17:40;;;;;;;9.30;3.75;;;;;;;;;;5069638;28;20049;-72
2022/01/02 05:20:06;;;;;;;10.50;3.90;;;;;;;;;;5072541;28;20053;-72
2022/01/02 05:22:32;;;;;;;10.95;4.10;;;;;;;;;;5072028;28;20060;-72
2022/01/02 05:24:59;;;;;;;12.95;4.43;;;;;;;;;;5068281;28;20530;-73
2022/01/02 05:27:25;;;;;;;10.40;3.90;;;;;;;;;;5071763;28;20136;-72
2022/01/02 05:29:51;;;;;;;8.43;3.97;;;;;;;;;;5073535;28;20050;-73
2022/01/02 05:32:17;;;;;;;8.45;4.35;;;;;;;;;;5072739;28;20076;-74
2022/01/02 05:34:44;;;;;;;9.80;3.78;;;;;;;;;;5072486;28;20491;-72
2022/01/02 05:37:10;;;;;;;10.02;3.83;;;;;;;;;;5071995;28;20107;-73
2022/01/02 05:39:36;;;;;;;14.77;3.88;;;;;;;;;;5072665;28;20156;-75
2022/01/02 05:42:03;;;;;;;8.05;3.88;;;;;;;;;;5072593;28;20529;-74
2022/01/02 05:44:30;;;;;;;13.02;3.80;;;;;;;;;;5073883;28;20055;-73
2022/01/02 05:46:57;;;;;;;9.32;3.50;;;;;;;;;;5081404;28;20100;-74
2022/01/02 05:49:23;;;;;;;16.05;4.60;;;;;;;;;;5071386;28;20055;-72
2022/01/02 05:51:49;;;;;;;9.90;3.28;;;;;;;;;;5072324;28;20084;-73
2022/01/02 05:54:16;;;;;;;14.18;4.10;;;;;;;;;;5070350;28;20063;-73
2022/01/02 05:56:42;;;;;;;7.15;3.92;;;;;;;;;;5072423;28;20049;-73
2022/01/02 05:59:08;;;;;;;7.97;3.63;;;;;;;;;;5071871;28;20053;-72
2022/01/02 06:01:34;;;;;;;14.88;4.13;;;;;;;;;;5072636;28;20064;-73
2022/01/02 06:04:01;;;;;;;6.57;3.72;;;;;;;;;;5072120;28;20084;-72
2022/01/02 06:06:27;;;;;;;8.88;3.80;;;;;;;;;;5072251;28;20055;-72
2022/01/02 06:08:54;;;;;;;9.30;3.92;;;;;;;;;;5073181;28;20539;-72
2022/01/02 06:11:20;;;;;;;9.73;3.55;;;;;;;;;;5071965;28;20052;-73
2022/01/02 06:13:46;;;;;;;8.13;4.07;;;;;;;;;;5071688;28;20049;-72
2022/01/02 06:16:13;;;;;;;10.65;4.43;;;;;;;;;;5070722;28;20090;-73
2022/01/02 06:18:39;;;;;;;7.45;3.65;;;;;;;;;;5071122;28;20063;-72
2022/01/02 06:21:05;;;;;;;9.23;3.50;;;;;;;;;;5072726;28;20056;-72
2022/01/02 06:23:32;;;;;;;8.70;3.17;;;;;;;;;;5071390;28;20059;-72
2022/01/02 06:25:58;;;;;;;7.65;3.60;;;;;;;;;;5071470;28;20071;-73
2022/01/02 06:28:24;;;;;;;8.85;3.97;;;;;;;;;;5071431;28;20055;-73
2022/01/02 06:30:51;;;;;;;11.05;4.10;;;;;;;;;;5072091;28;20510;-73
2022/01/02 06:33:17;;;;;;;8.02;2.83;;;;;;;;;;5071341;28;20057;-72
2022/01/02 06:35:43;;;;;;;11.68;3.83;;;;;;;;;;5069031;28;20061;-73
2022/01/02 06:38:20;;;;;;;13.10;3.70;;;;;;;;;;5064732;28;20122;-72
2022/01/02 06:40:47;;;;;;;8.32;3.25;;;;;;;;;;5069974;28;20060;-72
2022/01/02 06:43:14;;;;;;;9.60;3.08;;;;;;;;;;5071949;28;20049;-72
2022/01/02 06:45:41;;;;;;;10.52;3.83;;;;;;;;;;5073715;28;20646;-73
2022/01/02 06:48:08;;;;;;;5.05;2.95;;;;;;;;;;5071417;28;20103;-72
2022/01/02 06:50:34;;;;;;;10.38;3.90;;;;;;;;;;5071060;28;20045;-73
2022/01/02 06:53:00;;;;;;;8.45;4.07;;;;;;;;;;5072015;28;20049;-73
2022/01/02 06:55:26;;;;;;;7.05;3.08;;;;;;;;;;5068186;28;20464;-74
2022/01/02 06:57:53;;;;;;;9.95;4.32;;;;;;;;;;5071664;28;20538;-74
2022/01/02 07:00:19;;;;;;;13.05;4.10;;;;;;;;;;5074505;28;20049;-72
2022/01/02 07:02:46;;;;;;;9.32;3.50;;;;;;;;;;5072439;28;20496;-73
2022/01/02 07:05:12;;;;;;;8.02;3.45;;;;;;;;;;5064218;28;20440;-72
2022/01/02 07:07:42;;;;;;;12.98;3.65;;;;;;;;;;5072170;28;20060;-71
2022/01/02 07:10:10;;;;;;;6.13;3.00;;;;;;;;;;5072407;28;20073;-74
2022/01/02 07:12:36;;;;;;;9.20;3.70;;;;;;;;;;5074349;28;20511;-74
2022/01/02 07:15:04;;;;;;;6.47;2.40;;;;;;;;;;5075570;28;20045;-77
2022/01/02 07:17:30;;;;;;;6.93;3.17;;;;;;;;;;5074015;28;20574;-72
2022/01/02 07:19:56;;;;;;;10.00;3.85;;;;;;;;;;5074426;28;20048;-74
2022/01/02 07:22:23;;;;;;;6.20;2.97;;;;;;;;;;5075236;28;20057;-74
2022/01/02 07:24:51;;;;;;;9.70;3.15;;;;;;;;;;5074247;28;20156;-73
2022/01/02 07:27:18;;;;;;;5.90;3.03;;;;;;;;;;5075312;28;20056;-72
2022/01/02 07:29:48;;;;;;;5.68;2.83;;;;;;;;;;5072302;28;20059;-73
2022/01/02 07:32:15;;;;;;;7.07;2.75;;;;;;;;;;5073926;28;20089;-72
2022/01/02 07:34:42;;;;;;;7.38;3.08;;;;;;;;;;5074850;28;20052;-72
2022/01/02 07:37:09;;;;;;;13.23;3.30;;;;;;;;;;5075043;28;20049;-73
2022/01/02 07:39:35;;;;;;;8.30;2.80;;;;;;;;;;5074533;28;20045;-73
2022/01/02 07:42:02;;;;;;;12.27;3.25;;;;;;;;;;5074772;28;20079;-72
2022/01/02 07:44:33;;;;;;;6.80;3.22;;;;;;;;;;5074664;28;20107;-71
2022/01/02 07:46:59;;;;;;;8.70;3.92;;;;;;;;;;5075405;28;20524;-75
2022/01/02 07:49:25;;;;;;;4.32;3.28;;;;;;;;;;5055946;28;20046;-72
2022/01/02 07:51:52;;;;;;;9.68;3.92;;;;;;;;;;5070234;28;20063;-75
2022/01/02 07:54:18;;;;;;;7.75;3.63;;;;;;;;;;5074686;28;20056;-76
2022/01/02 07:56:45;;;;;;;9.57;3.75;;;;;;;;;;5075022;28;20059;-74
2022/01/02 07:59:12;;;;;;;6.75;3.00;;;;;;;;;;5074163;28;20928;-75
2022/01/02 08:01:38;;;;;;;8.80;3.28;;;;;;;;;;5072888;28;20053;-73
2022/01/02 08:04:05;;;;;;;11.15;3.67;;;;;;;;;;5073050;28;20055;-74
2022/01/02 08:06:31;;;;;;;9.98;3.20;;;;;;;;;;5074468;28;20055;-73
2022/01/02 08:08:58;;;;;;;9.68;3.70;;;;;;;;;;5074557;28;20045;-73
2022/01/02 08:11:24;;;;;;;8.65;3.75;;;;;;;;;;5074231;28;20055;-72
2022/01/02 08:14:11;;;;;;;7.50;3.33;;;;;;;;;;5073589;28;20424;-72
2022/01/02 08:16:38;;;;;;;6.07;3.53;;;;;;;;;;5074494;28;20064;-74
2022/01/02 08:19:08;;;;;;;8.82;3.17;;;;;;;;;;5063807;28;20144;-74
2022/01/02 08:21:34;;;;;;;6.15;3.47;;;;;;;;;;5073437;28;20051;-74
2022/01/02 08:24:01;;;;;;;10.75;3.45;;;;;;;;;;5070660;28;20162;-74
2022/01/02 08:26:28;;;;;;;7.55;3.38;;;;;;;;;;5072162;28;20073;-75
2022/01/02 08:28:54;;;;;;;5.15;2.78;;;;;;;;;;5062535;28;20129;-72
2022/01/02 08:31:20;;;;;;;10.77;3.70;;;;;;;;;;5070540;28;20053;-71
2022/01/02 08:33:47;;;;;;;6.68;2.80;;;;;;;;;;5072754;28;20083;-72
2022/01/02 08:36:13;;;;;;;5.88;3.60;;;;;;;;;;5058445;28;20509;-73
2022/01/02 08:38:39;;;;;;;8.60;3.80;;;;;;;;;;5065025;28;20048;-72
2022/01/02 08:41:06;;;;;;;8.38;3.03;;;;;;;;;;5053249;28;20501;-72
2022/01/02 08:43:34;;;;;;;6.10;2.83;;;;;;;;;;5062670;28;20059;-73
2022/01/02 08:46:00;;;;;;;6.07;3.22;;;;;;;;;;5072359;28;20048;-73
2022/01/02 08:48:27;;;;;;;8.80;3.60;;;;;;;;;;5066349;28;20053;-71
2022/01/02 08:50:53;;;;;;;9.35;3.80;;;;;;;;;;5067081;28;20057;-72
2022/01/02 08:53:19;;;;;;;5.97;3.58;;;;;;;;;;5072201;28;20064;-71
2022/01/02 08:55:46;;;;;;;9.38;3.75;;;;;;;;;;5069345;28;20049;-71
2022/01/02 08:58:12;;;;;;;8.60;3.55;;;;;;;;;;5071504;28;20140;-71
2022/01/02 09:00:40;;;;;;;12.52;3.80;;;;;;;;;;5065007;28;20045;-69
2022/01/02 09:03:06;;;;;;;7.65;4.20;;;;;;;;;;5065010;28;20497;-69
2022/01/02 09:05:33;;;;;;;8.77;3.70;;;;;;;;;;5062763;28;20477;-69
2022/01/02 09:07:59;;;;;;;8.35;3.58;;;;;;;;;;5053402;28;20053;-70
2022/01/02 09:10:26;;;;;;;4.40;3.25;;;;;;;;;;5062481;28;20531;-70
2022/01/02 09:12:52;;;;;;;7.63;3.17;;;;;;;;;;5066869;28;20083;-70
2022/01/02 09:15:18;;;;;;;11.32;3.75;;;;;;;;;;5061346;28;20075;-71
2022/01/02 09:17:45;;;;;;;7.40;4.13;;;;;;;;;;5064154;28;20053;-70
2022/01/02 09:20:13;;;;;;;9.23;3.70;;;;;;;;;;5058432;28;20049;-70
2022/01/02 09:22:42;;;;;;;7.28;3.85;;;;;;;;;;5063218;28;20136;-70
2022/01/02 09:25:09;;;;;;;8.95;4.00;;;;;;;;;;5061209;28;20049;-70
2022/01/02 09:27:36;;;;;;;6.88;3.83;;;;;;;;;;5056662;28;20053;-70
2022/01/02 09:30:05;;;;;;;6.80;3.95;;;;;;;;;;5068978;28;20053;-71
2022/01/02 09:32:34;;;;;;;11.25;4.00;;;;;;;;;;5060761;28;20049;-72
2022/01/02 09:35:01;;;;;;;5.95;4.00;;;;;;;;;;5067840;28;20057;-71
2022/01/02 09:37:28;;;;;;;8.70;4.18;;;;;;;;;;5066544;28;20469;-75
2022/01/02 09:39:55;;;;;;;8.38;4.35;;;;;;;;;;5061723;28;20059;-73
2022/01/02 09:42:21;;;;;;;7.15;4.45;;;;;;;;;;5064460;28;20144;-73
2022/01/02 09:44:47;;;;;;;6.72;4.07;;;;;;;;;;5067118;28;20057;-72
2022/01/02 09:47:15;;;;;;;10.60;4.45;;;;;;;;;;5070141;28;20049;-71
2022/01/02 09:49:41;;;;;;;9.43;4.32;;;;;;;;;;5069294;28;20049;-72
2022/01/02 09:52:07;;;;;;;8.18;4.05;;;;;;;;;;5069783;28;20052;-71
2022/01/02 09:54:34;;;;;;;8.40;4.47;;;;;;;;;;5067319;28;20049;-69
2022/01/02 09:57:01;;;;;;;9.10;4.50;;;;;;;;;;5061149;28;20053;-71
2022/01/02 09:59:27;;;;;;;7.82;4.07;;;;;;;;;;5070008;28;20057;-71
2022/01/02 10:01:54;;;;;;;8.18;4.20;;;;;;;;;;5066980;28;20053;-71
2022/01/02 10:04:41;;;;;;;9.73;4.72;;;;;;;;;;5062428;28;20445;-73
2022/01/02 10:07:26;;;;;;;10.32;4.10;;;;;;;;;;5054381;28;20057;-71
2022/01/02 10:09:52;;;;;;;8.02;5.03;;;;;;;;;;5058783;28;20053;-72
2022/01/02 10:12:20;;;;;;;10.27;4.63;;;;;;;;;;5060383;28;20053;-73
2022/01/02 10:15:06;;;;;;;11.48;4.97;;;;;;;;;;5078352;28;20068;-74
2022/01/02 10:17:49;;;;;;;11.30;5.30;;;;;;;;;;5077059;28;20132;-72
2022/01/02 10:20:16;;;;;;;14.80;4.50;;;;;;;;;;5069705;28;20059;-72
2022/01/02 10:23:02;;;;;;;11.25;4.55;;;;;;;;;;5072024;28;20123;-72
2022/01/02 10:25:48;;;;;;;5.93;4.07;;;;;;;;;;5071577;28;20098;-71
2022/01/02 10:28:19;;;;;;;9.38;4.63;;;;;;;;;;5063170;28;20509;-70
2022/01/02 10:30:46;;;;;;;11.40;4.32;;;;;;;;;;5072088;28;20049;-70
2022/01/02 10:33:13;;;;;;;7.32;4.75;;;;;;;;;;5072619;28;20346;-74
2022/01/02 10:35:41;;;;;;;8.32;4.78;;;;;;;;;;5072790;28;20140;-74
2022/01/02 10:38:13;;;;;;;11.80;4.78;;;;;;;;;;5069017;28;20543;-73
2022/01/02 10:40:39;;;;;;;10.80;4.45;;;;;;;;;;5075541;28;20060;-75
2022/01/02 10:43:09;;;;;;;11.30;4.80;;;;;;;;;;5076636;28;20528;-74
2022/01/02 10:45:35;;;;;;;7.70;4.22;;;;;;;;;;5075887;28;20136;-74
2022/01/02 10:48:02;;;;;;;13.60;4.55;;;;;;;;;;5076127;28;20591;-75
2022/01/02 10:50:34;;;;;;;12.90;5.00;;;;;;;;;;5076305;28;20107;-75
2022/01/02 10:53:14;;;;;;;12.63;5.95;;;;;;;;;;5076451;28;20056;-75
2022/01/02 10:55:43;;;;;;;9.05;4.60;;;;;;;;;;5076353;28;20053;-76
2022/01/02 10:58:10;;;;;;;8.90;4.75;;;;;;;;;;5075798;28;20055;-76
2022/01/02 11:00:37;;;;;;;10.98;4.57;;;;;;;;;;5075719;28;20512;-76
2022/01/02 11:03:05;;;;;;;11.65;5.32;;;;;;;;;;5075458;28;20064;-74
2022/01/02 11:05:33;;;;;;;8.82;4.35;;;;;;;;;;5076310;28;20056;-74
2022/01/02 11:08:00;;;;;;;11.63;4.55;;;;;;;;;;5076072;28;20053;-74
2022/01/02 11:10:35;;;;;;;11.70;4.95;;;;;;;;;;5076105;28;20441;-74
2022/01/02 11:13:05;;;;;;;13.38;4.80;;;;;;;;;;5076057;28;20107;-75
2022/01/02 11:15:32;;;;;;;7.45;4.55;;;;;;;;;;5075631;28;20551;-76
2022/01/02 11:17:59;;;;;;;9.63;4.57;;;;;;;;;;5075489;28;20057;-74
2022/01/02 11:20:27;;;;;;;12.68;5.22;;;;;;;;;;5075868;28;20126;-74
2022/01/02 11:23:05;;;;;;;10.50;5.07;;;;;;;;;;5075426;28;20464;-74
2022/01/02 11:25:52;;;;;;;10.73;4.82;;;;;;;;;;5076163;28;20489;-75
2022/01/02 11:28:41;;;;;;;10.15;5.00;;;;;;;;;;5075849;28;20088;-74
2022/01/02 11:31:26;;;;;;;8.77;4.60;;;;;;;;;;5068476;28;20057;-73
2022/01/02 11:33:52;;;;;;;14.75;4.97;;;;;;;;;;5070137;28;20057;-73
2022/01/02 11:36:29;;;;;;;7.18;4.53;;;;;;;;;;5066331;28;20489;-75
2022/01/02 11:39:00;;;;;;;9.93;4.85;;;;;;;;;;5075243;28;20053;-73
2022/01/02 11:41:42;;;;;;;10.57;5.20;;;;;;;;;;5071021;28;20053;-73
2022/01/02 11:44:31;;;;;;;11.23;4.70;;;;;;;;;;5062684;28;20056;-73
2022/01/02 11:46:58;;;;;;;11.40;4.47;;;;;;;;;;5061040;28;20056;-74
2022/01/02 11:49:38;;;;;;;17.70;4.78;;;;;;;;;;5067369;28;20056;-73
2022/01/02 11:52:09;;;;;;;10.95;3.92;;;;;;;;;;5074380;28;20056;-73
2022/01/02 11:54:40;;;;;;;14.82;4.20;;;;;;;;;;5063825;28;20084;-74
2022/01/02 11:57:10;;;;;;;9.80;4.65;;;;;;;;;;5075649;28;20048;-73
2022/01/02 11:59:39;;;;;;;13.15;4.22;;;;;;;;;;5075057;28;20598;-74
2022/01/02 12:02:17;;;;;;;12.68;4.57;;;;;;;;;;5065052;28;20056;-73
2022/01/02 12:05:03;;;;;;;12.30;4.25;;;;;;;;;;5072277;28;20082;-73
2022/01/02 12:07:32;;;;;;;9.82;3.97;;;;;;;;;;5075095;28;20165;-72
2022/01/02 12:10:14;;;;;;;14.32;3.90;;;;;;;;;;5066541;28;20142;-73
2022/01/02 12:12:55;;;;;;;14.77;4.53;;;;;;;;;;5064875;28;20918;-73
2022/01/02 12:15:34;;;;;;;14.80;3.35;;;;;;;;;;5070563;28;20057;-72
2022/01/02 12:18:15;;;;;;;13.25;3.13;;;;;;;;;;5062287;28;20147;-73
2022/01/02 12:21:14;;;;;;;11.60;3.70;;;;;;;;;;5059342;28;20053;-75
2022/01/02 12:23:44;;;;;;;12.30;2.90;;;;;;;;;;5069000;28;20111;-74
2022/01/02 12:26:20;;;;;;;10.75;2.47;;;;;;;;;;5075352;28;20060;-75
2022/01/02 12:28:48;;;;;;;7.93;2.80;;;;;;;;;;5073998;28;20049;-75
2022/01/02 12:31:15;;;;;;;9.57;2.55;;;;;;;;;;5073394;28;20059;-72
2022/01/02 12:33:42;;;;;;;5.63;1.75;;;;;;;;;;5074051;28;20048;-72
2022/01/02 12:36:12;;;;;;;8.65;2.78;;;;;;;;;;5066749;28;20459;-71
2022/01/02 12:38:45;;;;;;;9.13;2.00;;;;;;;;;;5060659;28;20493;-72
2022/01/02 12:41:12;;;;;;;13.20;2.50;;;;;;;;;;5070746;28;20057;-73
2022/01/02 12:43:38;;;;;;;11.77;2.30;;;;;;;;;;5068972;28;20511;-73
2022/01/02 12:46:05;;;;;;;7.72;1.92;;;;;;;;;;5059482;28;20069;-72
2022/01/02 12:48:33;;;;;;;8.38;2.03;;;;;;;;;;5057228;28;20053;-74
2022/01/02 12:51:12;;;;;;;5.28;1.77;;;;;;;;;;5060299;28;20143;-73
2022/01/02 12:53:39;;;;;;;8.07;1.95;;;;;;;;;;5064342;28;20048;-72
2022/01/02 12:56:05;;;;;;;7.60;2.33;;;;;;;;;;5054214;28;20061;-72
2022/01/02 12:58:33;;;;;;;9.10;2.17;;;;;;;;;;5070375;28;20063;-72
2022/01/02 13:01:03;;;;;;;8.50;2.45;;;;;;;;;;5064883;28;20058;-73
2022/01/02 13:03:35;;;;;;;11.20;2.13;;;;;;;;;;5057738;28;20072;-72
2022/01/02 13:06:01;;;;;;;13.52;2.95;;;;;;;;;;5071244;28;20051;-72
2022/01/02 13:08:28;;;;;;;8.57;2.03;;;;;;;;;;5072075;28;20072;-72
2022/01/02 13:10:54;;;;;;;10.13;2.03;;;;;;;;;;5065252;28;20054;-72
2022/01/02 13:13:30;;;;;;;14.50;3.90;;;;;;;;;;5058246;28;20049;-72
2022/01/02 13:16:04;;;;;;;6.53;1.83;;;;;;;;;;5063395;28;20053;-73
2022/01/02 13:18:31;;;;;;;11.35;2.03;;;;;;;;;;5059427;28;20516;-70
2022/01/02 13:20:59;;;;;;;9.73;2.53;;;;;;;;;;5072381;28;20044;-71
2022/01/02 13:23:25;;;;;;;9.35;1.75;;;;;;;;;;5071226;28;20059;-73
2022/01/02 13:25:52;;;;;;;8.52;2.00;;;;;;;;;;5070267;28;20478;-71
2022/01/02 13:28:18;;;;;;;10.85;2.00;;;;;;;;;;5058162;28;20052;-71
2022/01/02 13:30:51;;;;;;;8.52;2.20;;;;;;;;;;5065408;28;20442;-73
2022/01/02 13:33:18;;;;;;;22.33;2.88;;;;;;;;;;5070347;28;20084;-73
2022/01/02 13:35:45;;;;;;;10.65;2.33;;;;;;;;;;5063085;28;20084;-71
2022/01/02 13:38:11;;;;;;;9.65;2.72;;;;;;;;;;5059655;28;20104;-73
2022/01/02 13:40:38;;;;;;;11.18;2.05;;;;;;;;;;5060924;28;20045;-73
2022/01/02 13:43:09;;;;;;;16.48;3.08;;;;;;;;;;5072352;28;20057;-73
2022/01/02 13:45:39;;;;;;;10.60;2.63;;;;;;;;;;5070038;28;20053;-71
2022/01/02 13:48:07;;;;;;;16.85;2.45;;;;;;;;;;5070384;28;20049;-72
2022/01/02 13:50:38;;;;;;;10.55;2.80;;;;;;;;;;5064586;28;20055;-75
2022/01/02 13:53:12;;;;;;;11.05;2.13;;;;;;;;;;5060453;28;20496;-74
2022/01/02 13:55:40;;;;;;;18.40;3.00;;;;;;;;;;5061082;28;20057;-74
2022/01/02 13:58:17;;;;;;;14.52;2.70;;;;;;;;;;5069780;28;20091;-72
2022/01/02 14:00:45;;;;;;;14.73;2.83;;;;;;;;;;5069246;28;20146;-71
2022/01/02 14:03:30;;;;;;;17.33;3.20;;;;;;;;;;5071069;28;20079;-72
2022/01/02 14:05:58;;;;;;;8.32;2.08;;;;;;;;;;5063533;28;20061;-71
2022/01/02 14:08:24;;;;;;;9.02;2.53;;;;;;;;;;5068968;28;20063;-71
2022/01/02 14:11:07;;;;;;;12.23;2.38;;;;;;;;;;5080326;28;20063;-71
2022/01/02 14:13:37;;;;;;;14.13;2.58;;;;;;;;;;5079275;28;20600;-70
2022/01/02 14:16:05;;;;;;;16.48;2.97;;;;;;;;;;5070392;28;20057;-70
2022/01/02 14:18:31;;;;;;;17.90;3.13;;;;;;;;;;5073277;28;20057;-70
2022/01/02 14:21:01;;;;;;;12.82;2.70;;;;;;;;;;5074459;28;20045;-72
2022/01/02 14:23:28;;;;;;;11.70;2.63;;;;;;;;;;5071761;28;20053;-71
2022/01/02 14:25:55;;;;;;;12.35;2.55;;;;;;;;;;5075542;28;20048;-72
2022/01/02 14:28:21;;;;;;;15.68;2.53;;;;;;;;;;5072004;28;20140;-71
2022/01/02 14:30:49;;;;;;;11.50;2.40;;;;;;;;;;5072647;28;20144;-72
2022/01/02 14:33:15;;;;;;;10.98;2.70;;;;;;;;;;5074193;28;20053;-72
2022/01/02 14:35:42;;;;;;;7.53;2.05;;;;;;;;;;5080044;28;20063;-70
2022/01/02 14:38:08;;;;;;;5.72;1.73;;;;;;;;;;5071595;28;20052;-71
2022/01/02 14:40:34;;;;;;;8.32;1.92;;;;;;;;;;5076971;28;20057;-70
2022/01/02 14:43:00;;;;;;;12.63;2.78;;;;;;;;;;5089405;28;20059;-72
2022/01/02 14:45:27;;;;;;;7.03;1.92;;;;;;;;;;5080898;28;20084;-71
2022/01/02 14:47:55;;;;;;;15.68;3.20;;;;;;;;;;5079574;28;20055;-72
2022/01/02 14:50:21;;;;;;;10.00;2.42;;;;;;;;;;5069573;28;20140;-71
2022/01/02 14:52:47;;;;;;;10.55;2.25;;;;;;;;;;5071500;28;20052;-73